createdAt,value
2019-01-26T00:01:44.433Z,16.65
2019-01-26T00:04:10.991Z,17.30
2019-01-26T00:06:37.574Z,19.12
2019-01-26T00:09:07.485Z,19.35
2019-01-26T00:11:34.065Z,19.35
2019-01-26T00:14:00.632Z,19.20
2019-01-26T00:16:27.198Z,18.75
2019-01-26T00:18:53.740Z,19.37
2019-01-26T00:21:20.316Z,17.67
2019-01-26T00:23:46.869Z,18.65
2019-01-26T00:26:13.437Z,18.12
2019-01-26T00:28:39.983Z,16.07
2019-01-26T00:31:06.560Z,17.85
2019-01-26T00:33:33.106Z,13.68
2019-01-26T00:35:59.671Z,16.48
2019-01-26T00:38:26.211Z,13.93
2019-01-26T00:40:52.774Z,15.75
2019-01-26T00:43:19.348Z,14.78
2019-01-26T00:45:46.029Z,16.07
2019-01-26T00:48:12.593Z,15.35
2019-01-26T00:50:39.179Z,14.15
2019-01-26T00:53:05.734Z,14.03
2019-01-26T00:55:32.317Z,14.43
2019-01-26T00:57:58.866Z,14.55
2019-01-26T01:00:25.435Z,14.90
2019-01-26T01:02:51.992Z,16.55
2019-01-26T01:05:18.569Z,15.30
2019-01-26T01:07:45.193Z,15.08
2019-01-26T01:10:11.710Z,13.80
2019-01-26T01:12:38.331Z,12.73
2019-01-26T01:15:05.505Z,13.15
2019-01-26T01:17:32.097Z,12.98
2019-01-26T01:19:58.649Z,13.30
2019-01-26T01:22:25.213Z,11.70
2019-01-26T01:24:51.792Z,12.50
2019-01-26T01:27:18.357Z,11.40
2019-01-26T01:29:44.906Z,13.35
2019-01-26T01:32:11.481Z,11.75
2019-01-26T01:34:38.060Z,12.18
2019-01-26T01:37:04.585Z,11.90
2019-01-26T01:39:31.222Z,12.55
2019-01-26T01:41:57.810Z,12.15
2019-01-26T01:44:24.356Z,10.98
2019-01-26T01:46:50.927Z,12.58
2019-01-26T01:49:17.498Z,12.20
2019-01-26T01:51:44.066Z,11.45
2019-01-26T01:54:10.626Z,11.53
2019-01-26T01:56:37.181Z,12.00
2019-01-26T01:59:03.730Z,11.40
2019-01-26T02:01:30.326Z,12.23
2019-01-26T02:03:56.882Z,12.70
2019-01-26T02:06:23.446Z,10.15
2019-01-26T02:08:50.010Z,12.18
2019-01-26T02:11:36.185Z,12.15
2019-01-26T02:14:02.738Z,11.85
2019-01-26T02:16:29.308Z,10.70
2019-01-26T02:18:55.951Z,10.85
2019-01-26T02:21:22.510Z,11.08
2019-01-26T02:23:49.074Z,11.80
2019-01-26T02:26:15.618Z,10.58
2019-01-26T02:28:42.583Z,10.78
2019-01-26T02:31:09.169Z,12.23
2019-01-26T02:33:35.720Z,9.98
2019-01-26T02:36:02.305Z,11.05
2019-01-26T02:38:28.849Z,10.72
2019-01-26T02:40:55.396Z,12.47
2019-01-26T02:43:21.974Z,9.95
2019-01-26T02:45:48.553Z,10.90
2019-01-26T02:48:15.099Z,10.85
2019-01-26T02:50:41.641Z,8.90
2019-01-26T02:53:08.225Z,10.13
2019-01-26T02:55:34.771Z,9.95
2019-01-26T02:58:01.343Z,9.88
2019-01-26T03:00:27.886Z,9.15
2019-01-26T03:02:54.449Z,11.22
2019-01-26T03:05:21.022Z,10.25
2019-01-26T03:07:47.582Z,9.65
2019-01-26T03:10:15.724Z,9.50
2019-01-26T03:12:42.292Z,10.63
2019-01-26T03:15:10.340Z,9.93
2019-01-26T03:17:36.914Z,10.28
2019-01-26T03:20:04.916Z,10.23
2019-01-26T03:22:31.479Z,10.20
2019-01-26T03:24:58.037Z,11.22
2019-01-26T03:27:24.573Z,11.28
2019-01-26T03:29:51.154Z,9.63
2019-01-26T03:32:17.700Z,10.40
2019-01-26T03:34:44.266Z,9.73
2019-01-26T03:37:10.819Z,10.08
2019-01-26T03:39:37.393Z,9.23
2019-01-26T03:42:03.950Z,8.65
2019-01-26T03:44:30.519Z,9.03
2019-01-26T03:46:57.072Z,9.70
2019-01-26T03:49:23.639Z,9.23
2019-01-26T03:51:50.196Z,10.85
2019-01-26T03:54:16.768Z,11.15
2019-01-26T03:56:43.317Z,9.30
2019-01-26T03:59:09.888Z,9.20
2019-01-26T04:01:36.440Z,9.75
2019-01-26T04:04:03.051Z,9.40
2019-01-26T04:06:29.612Z,9.68
2019-01-26T04:08:56.187Z,9.33
2019-01-26T04:11:22.739Z,11.40
2019-01-26T04:13:49.321Z,9.30
2019-01-26T04:16:15.903Z,11.08
2019-01-26T04:18:42.477Z,10.35
2019-01-26T04:21:09.036Z,9.58
2019-01-26T04:23:35.601Z,10.88
2019-01-26T04:26:02.163Z,11.00
2019-01-26T04:28:28.748Z,10.13
2019-01-26T04:30:55.293Z,9.93
2019-01-26T04:33:21.832Z,14.03
2019-01-26T04:35:48.406Z,12.00
2019-01-26T04:38:14.961Z,13.45
2019-01-26T04:40:41.533Z,10.60
2019-01-26T04:43:08.075Z,12.75
2019-01-26T04:45:34.956Z,13.08
2019-01-26T04:48:01.501Z,10.53
2019-01-26T04:50:28.062Z,14.18
2019-01-26T04:52:54.626Z,12.60
2019-01-26T04:55:21.184Z,13.53
2019-01-26T04:57:47.740Z,12.85
2019-01-26T05:00:22.716Z,13.62
2019-01-26T05:02:49.246Z,13.32
2019-01-26T05:05:15.991Z,14.07
2019-01-26T05:07:42.570Z,12.65
2019-01-26T05:10:10.153Z,12.63
2019-01-26T05:12:36.708Z,12.40
2019-01-26T05:15:03.962Z,11.15
2019-01-26T05:17:30.662Z,13.55
2019-01-26T05:19:57.207Z,14.18
2019-01-26T05:22:23.783Z,13.90
2019-01-26T05:24:50.349Z,11.33
2019-01-26T05:27:16.899Z,14.68
2019-01-26T05:29:43.474Z,13.85
2019-01-26T05:32:10.081Z,11.95
2019-01-26T05:34:36.651Z,13.55
2019-01-26T05:37:03.215Z,13.65
2019-01-26T05:39:29.802Z,13.40
2019-01-26T05:41:56.347Z,13.80
2019-01-26T05:44:22.910Z,16.40
2019-01-26T05:46:49.576Z,13.60
2019-01-26T05:49:16.127Z,12.20
2019-01-26T05:51:42.703Z,16.02
2019-01-26T05:54:09.286Z,12.80
2019-01-26T05:56:35.846Z,12.58
2019-01-26T05:59:02.436Z,14.70
2019-01-26T06:01:29.007Z,10.80
2019-01-26T06:03:55.617Z,16.05
2019-01-26T06:06:22.186Z,13.85
2019-01-26T06:08:48.771Z,14.93
2019-01-26T06:11:15.350Z,15.00
2019-01-26T06:13:41.892Z,13.58
2019-01-26T06:16:08.469Z,14.47
2019-01-26T06:18:35.040Z,14.98
2019-01-26T06:21:01.599Z,16.73
2019-01-26T06:23:28.154Z,16.52
2019-01-26T06:25:54.727Z,17.67
2019-01-26T06:28:21.576Z,13.20
2019-01-26T06:30:48.156Z,10.30
2019-01-26T06:33:14.717Z,13.48
2019-01-26T06:35:41.263Z,13.75
2019-01-26T06:38:07.848Z,13.05
2019-01-26T06:40:34.400Z,13.08
2019-01-26T06:43:00.963Z,13.90
2019-01-26T06:45:27.519Z,12.45
2019-01-26T06:47:54.093Z,13.50
2019-01-26T06:50:24.315Z,11.93
2019-01-26T06:52:50.896Z,13.32
2019-01-26T06:55:19.674Z,10.30
2019-01-26T06:57:46.234Z,13.62
2019-01-26T07:00:15.141Z,10.70
2019-01-26T07:02:41.710Z,14.10
2019-01-26T07:05:15.319Z,13.78
2019-01-26T07:07:41.914Z,15.68
2019-01-26T07:10:08.530Z,14.70
2019-01-26T07:12:35.089Z,13.43
2019-01-26T07:15:01.660Z,10.63
2019-01-26T07:17:28.223Z,12.43
2019-01-26T07:19:54.791Z,11.68
2019-01-26T07:22:21.363Z,11.20
2019-01-26T07:24:47.908Z,13.68
2019-01-26T07:27:14.607Z,11.55
2019-01-26T07:29:43.459Z,12.90
2019-01-26T07:32:10.066Z,11.63
2019-01-26T07:34:36.602Z,10.25
2019-01-26T07:37:03.193Z,11.38
2019-01-26T07:39:29.737Z,15.13
2019-01-26T07:41:56.273Z,12.60
2019-01-26T07:44:22.872Z,11.18
2019-01-26T07:46:49.417Z,11.10
2019-01-26T07:49:15.981Z,11.35
2019-01-26T07:51:42.516Z,10.40
2019-01-26T07:54:09.093Z,12.78
2019-01-26T07:56:38.723Z,8.83
2019-01-26T07:59:05.274Z,11.55
2019-01-26T08:01:31.861Z,10.40
2019-01-26T08:03:58.403Z,10.25
2019-01-26T08:06:24.972Z,10.65
2019-01-26T08:08:51.541Z,11.03
2019-01-26T08:11:18.100Z,12.28
2019-01-26T08:13:44.671Z,7.80
2019-01-26T08:16:11.235Z,12.18
2019-01-26T08:18:37.800Z,13.10
2019-01-26T08:21:04.357Z,12.63
2019-01-26T08:23:30.925Z,13.65
2019-01-26T08:25:57.488Z,12.58
2019-01-26T08:28:24.062Z,10.82
2019-01-26T08:30:50.616Z,12.80
2019-01-26T08:33:17.174Z,11.12
2019-01-26T08:35:43.720Z,13.10
2019-01-26T08:38:10.262Z,11.45
2019-01-26T08:40:36.844Z,12.10
2019-01-26T08:43:03.519Z,13.13
2019-01-26T08:45:30.102Z,12.45
2019-01-26T08:47:56.690Z,10.18
2019-01-26T08:50:24.177Z,13.80
2019-01-26T08:52:50.736Z,11.35
2019-01-26T08:55:18.445Z,12.45
2019-01-26T08:57:45.154Z,15.65
2019-01-26T09:00:17.778Z,12.50
2019-01-26T09:03:12.971Z,11.50
2019-01-26T09:05:56.566Z,12.28
2019-01-26T09:08:23.128Z,11.03
2019-01-26T09:10:49.715Z,12.65
2019-01-26T09:13:16.254Z,13.22
2019-01-26T09:15:42.830Z,12.65
2019-01-26T09:18:09.397Z,12.03
2019-01-26T09:20:35.971Z,10.15
2019-01-26T09:23:02.541Z,13.50
2019-01-26T09:25:29.934Z,13.80
2019-01-26T09:27:57.021Z,12.98
2019-01-26T09:30:23.569Z,12.53
2019-01-26T09:32:50.133Z,11.78
2019-01-26T09:35:16.701Z,10.23
2019-01-26T09:37:43.293Z,10.75
2019-01-26T09:40:09.864Z,10.15
2019-01-26T09:42:36.404Z,11.12
2019-01-26T09:45:04.413Z,10.75
2019-01-26T09:47:30.981Z,12.80
2019-01-26T09:49:57.552Z,12.15
2019-01-26T09:52:24.111Z,12.20
2019-01-26T09:54:50.681Z,14.85
2019-01-26T09:57:17.349Z,14.23
2019-01-26T09:59:43.910Z,8.03
2019-01-26T10:02:10.466Z,10.88
2019-01-26T10:04:37.029Z,14.23
2019-01-26T10:07:03.750Z,12.07
2019-01-26T10:09:30.318Z,9.15
2019-01-26T10:11:56.896Z,8.40
2019-01-26T10:14:23.470Z,8.38
2019-01-26T10:16:50.106Z,8.80
2019-01-26T10:19:16.655Z,9.68
2019-01-26T10:21:43.259Z,11.78
2019-01-26T10:24:09.802Z,12.43
2019-01-26T10:26:36.395Z,11.43
2019-01-26T10:29:02.942Z,10.78
2019-01-26T10:31:29.536Z,8.70
2019-01-26T10:33:56.092Z,10.90
2019-01-26T10:36:27.652Z,8.05
2019-01-26T10:39:13.850Z,6.85
2019-01-26T10:42:00.695Z,8.55
2019-01-26T10:44:31.097Z,7.30
2019-01-26T10:46:57.660Z,9.93
2019-01-26T10:49:24.241Z,11.28
2019-01-26T10:51:50.838Z,11.75
2019-01-26T10:54:17.409Z,9.48
2019-01-26T10:56:43.977Z,10.05
2019-01-26T10:59:10.527Z,10.08
2019-01-26T11:01:37.090Z,9.03
2019-01-26T11:04:03.664Z,11.03
2019-01-26T11:06:30.232Z,7.97
2019-01-26T11:08:56.801Z,9.13
2019-01-26T11:11:23.364Z,9.45
2019-01-26T11:13:50.347Z,12.45
2019-01-26T11:16:16.928Z,9.35
2019-01-26T11:18:43.482Z,14.30
2019-01-26T11:21:10.050Z,12.65
2019-01-26T11:23:36.600Z,15.88
2019-01-26T11:26:03.166Z,12.25
2019-01-26T11:28:29.715Z,10.08
2019-01-26T11:30:56.485Z,8.00
2019-01-26T11:33:23.053Z,10.50
2019-01-26T11:35:49.614Z,10.20
2019-01-26T11:38:16.164Z,10.43
2019-01-26T11:40:42.715Z,10.20
2019-01-26T11:43:09.308Z,8.68
2019-01-26T11:45:58.260Z,11.28
2019-01-26T11:48:27.822Z,9.13
2019-01-26T11:50:59.780Z,11.53
2019-01-26T11:53:26.326Z,10.63
2019-01-26T11:56:20.594Z,9.50
2019-01-26T11:58:47.151Z,10.40
2019-01-26T12:01:28.492Z,9.70
2019-01-26T12:04:11.255Z,9.95
2019-01-26T12:06:42.391Z,11.50
2019-01-26T12:09:08.960Z,12.20
2019-01-26T12:11:35.528Z,10.40
2019-01-26T12:14:21.699Z,7.25
2019-01-26T12:16:48.303Z,10.78
2019-01-26T12:19:14.838Z,11.10
2019-01-26T12:21:41.397Z,8.75
2019-01-26T12:24:07.941Z,8.33
2019-01-26T12:26:34.518Z,11.15
2019-01-26T12:29:01.068Z,6.78
2019-01-26T12:31:27.636Z,8.88
2019-01-26T12:33:54.190Z,7.75
2019-01-26T12:36:20.795Z,8.30
2019-01-26T12:38:47.352Z,6.62
2019-01-26T12:41:13.898Z,9.43
2019-01-26T12:43:40.499Z,9.25
2019-01-26T12:46:07.050Z,8.98
2019-01-26T12:48:33.627Z,9.98
2019-01-26T12:51:00.177Z,9.35
2019-01-26T12:53:26.746Z,10.30
2019-01-26T12:55:53.305Z,8.65
2019-01-26T12:58:19.866Z,8.05
2019-01-26T13:00:46.411Z,9.98
2019-01-26T13:03:12.983Z,12.10
2019-01-26T13:05:39.514Z,11.25
2019-01-26T13:08:06.107Z,7.50
2019-01-26T13:10:35.802Z,10.70
2019-01-26T13:13:03.983Z,7.97
2019-01-26T13:15:30.525Z,11.00
2019-01-26T13:17:57.836Z,9.50
2019-01-26T13:20:44.014Z,11.25
2019-01-26T13:23:10.592Z,10.58
2019-01-26T13:25:37.151Z,10.82
2019-01-26T13:28:03.872Z,11.10
2019-01-26T13:30:30.413Z,11.12
2019-01-26T13:32:56.990Z,11.15
2019-01-26T13:35:23.537Z,11.53
2019-01-26T13:37:50.100Z,12.95
2019-01-26T13:40:17.876Z,11.53
2019-01-26T13:42:44.428Z,14.25
2019-01-26T13:45:12.129Z,17.05
2019-01-26T13:47:38.673Z,15.18
2019-01-26T13:50:06.105Z,15.15
2019-01-26T13:52:32.651Z,17.55
2019-01-26T13:54:59.212Z,17.10
2019-01-26T13:57:25.755Z,17.35
2019-01-26T13:59:52.323Z,14.85
2019-01-26T14:02:18.865Z,14.87
2019-01-26T14:04:45.429Z,18.17
2019-01-26T14:07:11.993Z,15.85
2019-01-26T14:09:38.590Z,14.70
2019-01-26T14:12:05.163Z,14.95
2019-01-26T14:14:31.737Z,13.03
2019-01-26T14:16:58.298Z,13.75
2019-01-26T14:19:24.873Z,11.53
2019-01-26T14:21:51.417Z,11.35
2019-01-26T14:24:17.997Z,15.15
2019-01-26T14:26:49.718Z,9.25
2019-01-26T14:29:13.023Z,12.53
2019-01-26T14:31:39.573Z,14.53
2019-01-26T14:34:06.144Z,10.20
2019-01-26T14:36:32.705Z,16.07
2019-01-26T14:38:59.278Z,15.53
2019-01-26T14:41:25.824Z,13.45
2019-01-26T14:43:52.400Z,12.53
2019-01-26T14:46:18.946Z,13.43
2019-01-26T14:48:45.513Z,11.38
2019-01-26T14:51:12.070Z,10.32
2019-01-26T14:53:38.671Z,15.60
2019-01-26T14:56:05.221Z,14.70
2019-01-26T14:58:31.792Z,17.07
2019-01-26T15:00:58.347Z,16.37
2019-01-26T15:03:24.901Z,15.88
2019-01-26T15:05:51.482Z,20.45
2019-01-26T15:08:18.050Z,21.02
2019-01-26T15:10:44.610Z,20.30
2019-01-26T15:13:11.154Z,20.23
2019-01-26T15:15:37.740Z,32.78
2019-01-26T15:18:04.284Z,25.60
2019-01-26T15:20:36.259Z,28.85
2019-01-26T15:23:03.010Z,28.62
2019-01-26T15:25:29.577Z,23.32
2019-01-26T15:27:56.129Z,27.67
2019-01-26T15:30:27.830Z,32.50
2019-01-26T15:32:54.382Z,29.07
2019-01-26T15:35:20.940Z,38.65
2019-01-26T15:37:47.493Z,29.32
2019-01-26T15:40:32.821Z,36.38
2019-01-26T15:42:59.375Z,43.92
2019-01-26T15:45:28.790Z,30.17
2019-01-26T15:47:55.343Z,37.55
2019-01-26T15:50:21.913Z,41.20
2019-01-26T15:52:48.470Z,29.82
2019-01-26T15:55:16.558Z,28.00
2019-01-26T15:57:43.111Z,33.80
2019-01-26T16:00:13.859Z,30.50
2019-01-26T16:02:40.410Z,35.92
2019-01-26T16:05:07.142Z,34.48
2019-01-26T16:07:33.688Z,36.45
2019-01-26T16:10:00.302Z,38.00
2019-01-26T16:12:26.853Z,39.95
2019-01-26T16:14:53.396Z,35.50
2019-01-26T16:17:19.979Z,34.63
2019-01-26T16:19:46.551Z,37.20
2019-01-26T16:22:13.159Z,36.88
2019-01-26T16:24:39.707Z,36.38
2019-01-26T16:27:06.274Z,31.52
2019-01-26T16:29:32.811Z,26.37
2019-01-26T16:31:59.371Z,23.05
2019-01-26T16:34:25.919Z,26.57
2019-01-26T16:36:52.487Z,25.80
2019-01-26T16:39:20.393Z,26.10
2019-01-26T16:41:47.549Z,24.75
2019-01-26T16:44:14.103Z,20.08
2019-01-26T16:46:40.674Z,20.72
2019-01-26T16:49:07.319Z,22.37
2019-01-26T16:51:33.887Z,23.57
2019-01-26T16:54:00.423Z,22.55
2019-01-26T16:56:26.996Z,20.65
2019-01-26T16:58:53.553Z,26.07
2019-01-26T17:01:20.128Z,22.40
2019-01-26T17:03:46.681Z,15.05
2019-01-26T17:06:13.768Z,22.48
2019-01-26T17:08:40.323Z,22.95
2019-01-26T17:11:06.890Z,22.20
2019-01-26T17:13:33.472Z,24.55
2019-01-26T17:16:00.039Z,18.27
2019-01-26T17:18:26.595Z,23.05
2019-01-26T17:20:53.143Z,19.82
2019-01-26T17:23:20.107Z,16.75
2019-01-26T17:25:46.672Z,22.27
2019-01-26T17:28:13.241Z,20.30
2019-01-26T17:30:40.698Z,17.73
2019-01-26T17:33:07.836Z,24.07
2019-01-26T17:35:34.521Z,19.90
2019-01-26T17:38:01.097Z,20.52
2019-01-26T17:40:27.648Z,19.90
2019-01-26T17:42:54.216Z,21.65
2019-01-26T17:45:20.823Z,16.60
2019-01-26T17:47:47.527Z,17.25
2019-01-26T17:50:15.849Z,21.42
2019-01-26T17:52:42.418Z,17.70
2019-01-26T17:55:08.970Z,14.80
2019-01-26T17:57:35.701Z,16.48
2019-01-26T18:00:02.415Z,23.30
2019-01-26T18:02:28.989Z,19.45
2019-01-26T18:04:55.540Z,21.23
2019-01-26T18:07:22.107Z,25.35
2019-01-26T18:09:48.673Z,19.07
2019-01-26T18:12:15.249Z,19.30
2019-01-26T18:14:41.797Z,16.15
2019-01-26T18:17:08.334Z,16.82
2019-01-26T18:19:34.901Z,19.65
2019-01-26T18:22:01.455Z,13.35
2019-01-26T18:24:28.013Z,15.43
2019-01-26T18:26:54.554Z,18.67
2019-01-26T18:29:21.121Z,18.67
2019-01-26T18:31:47.694Z,19.10
2019-01-26T18:34:14.254Z,19.65
2019-01-26T18:36:40.803Z,17.52
2019-01-26T18:39:07.874Z,18.87
2019-01-26T18:41:34.431Z,17.10
2019-01-26T18:44:03.377Z,18.75
2019-01-26T18:46:29.926Z,18.60
2019-01-26T18:48:56.481Z,19.98
2019-01-26T18:51:23.019Z,16.15
2019-01-26T18:53:49.588Z,18.90
2019-01-26T18:56:16.130Z,15.25
2019-01-26T18:58:42.684Z,15.23
2019-01-26T19:01:09.237Z,14.35
2019-01-26T19:03:59.548Z,13.90
2019-01-26T19:06:26.106Z,14.60
2019-01-26T19:08:52.688Z,14.68
2019-01-26T19:11:19.241Z,12.30
2019-01-26T19:13:45.810Z,13.80
2019-01-26T19:16:12.360Z,14.33
2019-01-26T19:18:38.930Z,14.83
2019-01-26T19:21:05.484Z,14.20
2019-01-26T19:23:32.050Z,14.03
2019-01-26T19:25:58.614Z,16.93
2019-01-26T19:28:25.179Z,14.78
2019-01-26T19:30:51.759Z,17.02
2019-01-26T19:33:18.316Z,17.77
2019-01-26T19:35:44.978Z,16.37
2019-01-26T19:38:11.524Z,10.93
2019-01-26T19:40:38.093Z,13.10
2019-01-26T19:43:04.646Z,15.32
2019-01-26T19:45:31.225Z,17.35
2019-01-26T19:47:57.793Z,18.02
2019-01-26T19:50:24.365Z,15.68
2019-01-26T19:52:50.908Z,16.67
2019-01-26T19:55:17.743Z,13.30
2019-01-26T19:57:44.285Z,16.90
2019-01-26T20:00:10.874Z,12.88
2019-01-26T20:02:37.435Z,12.45
2019-01-26T20:05:04.784Z,13.80
2019-01-26T20:07:33.242Z,14.85
2019-01-26T20:10:00.258Z,14.68
2019-01-26T20:12:26.791Z,16.60
2019-01-26T20:14:53.377Z,16.05
2019-01-26T20:17:19.925Z,15.15
2019-01-26T20:19:46.498Z,14.18
2019-01-26T20:22:13.047Z,11.93
2019-01-26T20:24:39.617Z,12.10
2019-01-26T20:27:06.185Z,14.05
2019-01-26T20:29:32.741Z,14.00
2019-01-26T20:31:59.297Z,12.93
2019-01-26T20:34:25.872Z,14.75
2019-01-26T20:36:52.427Z,11.88
2019-01-26T20:39:18.997Z,12.50
2019-01-26T20:41:45.558Z,12.73
2019-01-26T20:44:12.145Z,14.58
2019-01-26T20:46:39.889Z,12.90
2019-01-26T20:49:06.429Z,12.00
2019-01-26T20:51:32.989Z,9.50
2019-01-26T20:53:59.560Z,9.63
2019-01-26T20:56:26.111Z,12.25
2019-01-26T20:58:52.657Z,12.90
2019-01-26T21:01:19.529Z,12.25
2019-01-26T21:03:46.081Z,10.10
2019-01-26T21:06:12.644Z,11.73
2019-01-26T21:08:39.198Z,10.03
2019-01-26T21:11:05.774Z,11.10
2019-01-26T21:13:32.323Z,10.50
2019-01-26T21:15:58.884Z,10.58
2019-01-26T21:18:25.871Z,10.78
2019-01-26T21:20:52.465Z,11.25
2019-01-26T21:23:19.037Z,11.68
2019-01-26T21:25:45.579Z,14.73
2019-01-26T21:28:12.143Z,13.43
2019-01-26T21:30:38.719Z,12.23
2019-01-26T21:33:05.257Z,13.18
2019-01-26T21:35:31.865Z,13.32
2019-01-26T21:37:58.422Z,9.08
2019-01-26T21:40:27.059Z,10.23
2019-01-26T21:42:53.621Z,10.65
2019-01-26T21:45:20.384Z,10.48
2019-01-26T21:47:46.933Z,10.23
2019-01-26T21:50:18.829Z,9.78
2019-01-26T21:52:45.382Z,8.90
2019-01-26T21:55:11.931Z,8.43
2019-01-26T21:57:38.502Z,8.20
2019-01-26T22:00:11.446Z,8.33
2019-01-26T22:02:38.010Z,9.23
2019-01-26T22:05:05.243Z,10.00
2019-01-26T22:07:31.820Z,9.93
2019-01-26T22:09:58.390Z,12.78
2019-01-26T22:12:24.965Z,13.65
2019-01-26T22:14:51.516Z,10.38
2019-01-26T22:17:18.080Z,13.60
2019-01-26T22:19:44.638Z,9.63
2019-01-26T22:22:11.208Z,9.78
2019-01-26T22:24:37.752Z,9.30
2019-01-26T22:27:04.331Z,9.75
2019-01-26T22:29:31.320Z,11.83
2019-01-26T22:31:58.139Z,11.15
2019-01-26T22:34:24.691Z,16.52
2019-01-26T22:36:51.261Z,11.88
2019-01-26T22:39:17.799Z,8.53
2019-01-26T22:41:44.866Z,9.00
2019-01-26T22:44:11.424Z,9.70
2019-01-26T22:46:38.012Z,7.62
2019-01-26T22:49:04.549Z,9.05
2019-01-26T22:51:31.129Z,8.05
2019-01-26T22:53:57.695Z,7.20
2019-01-26T22:56:24.241Z,7.30
2019-01-26T22:58:50.810Z,7.40
2019-01-26T23:01:24.318Z,7.55
2019-01-26T23:04:20.578Z,7.47
2019-01-26T23:06:57.367Z,5.42
2019-01-26T23:09:29.214Z,5.90
2019-01-26T23:12:46.687Z,5.47
2019-01-26T23:15:48.050Z,6.53
2019-01-26T23:18:27.991Z,6.80
2019-01-26T23:21:23.182Z,6.43
2019-01-26T23:24:37.979Z,6.67
2019-01-26T23:27:33.352Z,6.47
2019-01-26T23:30:44.516Z,6.30
2019-01-26T23:33:11.082Z,6.72
2019-01-26T23:35:37.628Z,6.47
2019-01-26T23:38:04.203Z,6.00
2019-01-26T23:40:30.742Z,6.75
2019-01-26T23:42:57.329Z,5.90
2019-01-26T23:45:23.864Z,5.65
2019-01-26T23:47:50.447Z,5.83
2019-01-26T23:50:17.128Z,6.50
2019-01-26T23:52:43.682Z,6.22
2019-01-26T23:55:10.257Z,6.50
2019-01-26T23:57:36.825Z,7.60
